Flight Track Log - Related Links

Times and Time Zones

All times are in EDT time to prevent confusion due to time zone crossing. See the N424AG flight status page for this flight to view local times or setup timezone preferences in your user account.

Time Position Orientation Groundspeed Altitude Reporting Facility
EDT Latitude Longitude Course Direction KTS MPH feet Rate Location/Type
Mon 02:22:04 PM 46.7739 -92.1269 115° Southeast 138 159 4,200  Level Minneapolis Center
Mon 02:23:06 PM 46.7661 -92.0692 101° East 139 160 5,100 823 Climbing Minneapolis Center
Mon 02:24:08 PM 46.7578 -92.0147 103° East 139 160 5,900 726 Climbing Minneapolis Center
Mon 02:25:00 PM 46.7545 -91.7453 106° East  Level Estimated
Mon 02:25:10 PM 46.7489 -91.9594 103° East 140 161 6,600  Level Minneapolis Center
Mon 02:26:00 PM 46.7397 -91.6708 106° East  Level Estimated
Mon 02:26:13 PM 46.7358 -91.9053 109° East 140 161 7,200  Level Minneapolis Center
Mon 02:27:15 PM 46.7231 -91.8336 105° East 146 168 8,000 629 Climbing Minneapolis Center
Mon 02:28:17 PM 46.7122 -91.7731 105° East 150 173 8,500 435 Climbing Minneapolis Center
Mon 02:29:19 PM 46.7003 -91.7106 106° East 155 178 8,900 194 Climbing Minneapolis Center
Mon 02:30:21 PM 46.6850 -91.6397 107° East 168 193 8,900  Level Minneapolis Center
Mon 02:31:23 PM 46.6694 -91.5631 106° East 183 211 8,900  Level Minneapolis Center
Mon 02:32:25 PM 46.6572 -91.4875 103° East 189 217 8,900  Level Minneapolis Center
Mon 02:33:27 PM 46.6422 -91.3939 103° East 193 222 8,900 387 Level Minneapolis Center
Mon 02:34:29 PM 46.6289 -91.3239 105° East 188 216 9,700 629 Climbing Minneapolis Center
Mon 02:35:31 PM 46.6142 -91.2603 109° East 176 203 10,200 435 Climbing Minneapolis Center
Mon 02:36:33 PM 46.5994 -91.1964 109° East 170 196 10,600 435 Climbing Minneapolis Center
Mon 02:37:35 PM 46.5861 -91.1325 107° East 167 192 11,100 480 Climbing Minneapolis Center
Mon 02:38:38 PM 46.5725 -91.0558 104° East 165 190 11,600 432 Climbing Minneapolis Center
Mon 02:39:40 PM 46.5636 -90.9892 101° East 166 191 12,000 435 Climbing Minneapolis Center
Mon 02:40:42 PM 46.5558 -90.9206 99° East 171 197 12,500 435 Climbing Minneapolis Center
Mon 02:41:44 PM 46.5469 -90.8533 101° East 171 197 12,900 242 Climbing Minneapolis Center
Mon 02:42:46 PM 46.5339 -90.7850 105° East 177 204 13,000 48 Climbing Minneapolis Center
Mon 02:43:48 PM 46.5131 -90.7133 113° Southeast 191 220 13,000  Level Minneapolis Center
Mon 02:44:50 PM 46.4836 -90.6267 116° Southeast 200 230 13,000 -48 Level Minneapolis Center
Mon 02:45:52 PM 46.4633 -90.5514 111° Southeast 202 232 12,900  Descending Minneapolis Center
Mon 02:46:54 PM 46.4517 -90.4742 102° East 198 228 13,000  Climbing Minneapolis Center
Mon 02:47:56 PM 46.4364 -90.3986 106° East 196 226 12,900  Descending Minneapolis Center
Mon 02:48:58 PM 46.4208 -90.3247 107° East 194 223 13,000  Climbing Minneapolis Center
Mon 02:50:00 PM 46.4058 -90.2475 106° East 199 229 12,900  Descending Minneapolis Center
Mon 02:51:03 PM 46.3894 -90.1692 107° East 202 232 13,000 48 Climbing Minneapolis Center
Mon 02:52:05 PM 46.3717 -90.0753 105° East 203 234 13,000  Level Minneapolis Center
Mon 02:53:07 PM 46.3569 -90.0003 106° East 198 228 13,000  Level Minneapolis Center
Mon 02:54:09 PM 46.3472 -89.9197 100° East 199 229 13,000 -48 Level Minneapolis Center
Mon 02:55:11 PM 46.3325 -89.8417 105° East 201 231 12,900 -48 Descending Minneapolis Center
Mon 02:56:13 PM 46.3206 -89.7619 102° East 201 231 12,900 48 Level Minneapolis Center
Mon 02:57:15 PM 46.3075 -89.6839 104° East 201 231 13,000 48 Climbing Minneapolis Center
Mon 02:58:17 PM 46.2861 -89.5872 108° East 205 236 13,000  Level Minneapolis Center
Mon 02:59:19 PM 46.2686 -89.5081 108° East 206 237 13,000  Level Minneapolis Center
Mon 03:00:21 PM 46.2517 -89.4292 107° East 205 236 13,000  Level Minneapolis Center
Mon 03:01:23 PM 46.2358 -89.3506 106° East 203 234 13,000  Level Minneapolis Center
Mon 03:02:25 PM 46.2192 -89.2714 107° East 205 236 13,000  Level Minneapolis Center
Mon 03:03:28 PM 46.2022 -89.1922 107° East 206 237 13,000  Level Minneapolis Center
Mon 03:04:30 PM 46.1850 -89.1153 108° East 201 231 13,000  Level Minneapolis Center
Mon 03:05:32 PM 46.1686 -89.0397 107° East 196 226 13,000  Level Minneapolis Center
Mon 03:06:34 PM 46.1489 -88.9483 107° East 198 228 13,000 48 Level Minneapolis Center
Mon 03:07:36 PM 46.1328 -88.8744 107° East 194 223 13,100  Climbing Minneapolis Center
Mon 03:08:38 PM 46.1156 -88.8008 109° East 194 223 13,000 -48 Descending Minneapolis Center
Mon 03:09:40 PM 46.0992 -88.7261 108° East 194 223 13,000 48 Level Minneapolis Center
Mon 03:10:42 PM 46.0833 -88.6536 107° East 190 219 13,100  Climbing Minneapolis Center
Mon 03:11:44 PM 46.0667 -88.5800 108° East 192 221 13,000 -484 Descending Minneapolis Center
Mon 03:12:46 PM 46.0456 -88.4819 107° East 204 235 12,100 -774 Descending Minneapolis Center
Mon 03:13:48 PM 46.0261 -88.3972 108° East 216 249 11,400 -480 Descending Minneapolis Center
Mon 03:14:51 PM 46.0072 -88.3142 108° East 220 253 11,100 -192 Descending Minneapolis Center
Mon 03:15:53 PM 45.9897 -88.2389 108° East 206 237 11,000 -726 Descending Minneapolis Center
Mon 03:16:55 PM 45.9700 -88.1503 108° East 215 247 9,600 -1,161 Descending Minneapolis Center
Mon 03:17:57 PM 45.9500 -88.0639 108° East 223 257 8,600 -968 Descending Minneapolis Center
Mon 03:18:59 PM 45.9303 -87.9753 108° East 214 246 7,600 -1,016 Descending Minneapolis Center
Mon 03:20:01 PM 45.9114 -87.8972 109° East 208 239 6,500 -919 Descending Minneapolis Center
Mon 03:21:03 PM 45.8931 -87.8192 109° East 203 234 5,700 -726 Descending Minneapolis Center
Mon 03:22:05 PM 45.8764 -87.7453 108° East 193 222 5,000 -581 Descending Minneapolis Center
Mon 03:23:07 PM 45.8617 -87.6722 106° East 188 216 4,500 -435 Descending Minneapolis Center
Mon 03:24:09 PM 45.8425 -87.5969 110° East 184 212 4,100 -387 Descending Minneapolis Center
Mon 03:26:00 PM 45.8000 -87.4789 90° East  Level FlightAware Approximate
Mon 03:33:00 PM 45.7227 -87.0937 110° East  Level Estimated
Mon 03:34:00 PM 45.7227 -87.0937 110° East  Level Estimated
Mon 03:35:00 PM 45.7227 -87.0937 110° East  Level Estimated
Mon 03:36:00 PM 45.7227 -87.0937 110° East  Level Estimated
Mon 03:37:00 PM 45.7227 -87.0937 110° East  Level Estimated
Mon 03:38:00 PM 45.7227 -87.0937 110° East  Level Estimated

Login

Don't have an account? Register now (free) for customized features, flight alerts, and more!